sensor_id;sensor_type;location;lat;lon;timestamp;pressure;altitude;pressure_sealevel;temperature;humidity
10127;BME280;13080;42.608;23.362;2023-02-05T00:00:20;149696.91;;;-5.62;100.00
10127;BME280;13080;42.608;23.362;2023-02-05T00:02:46;149716.13;;;-5.55;100.00
10127;BME280;13080;42.608;23.362;2023-02-05T00:05:13;149710.97;;;-5.57;100.00
10127;BME280;13080;42.608;23.362;2023-02-05T00:07:40;149708.44;;;-5.58;100.00
10127;BME280;13080;42.608;23.362;2023-02-05T00:10:07;149675.13;;;-5.71;100.00
10127;BME280;13080;42.608;23.362;2023-02-05T00:12:34;149682.78;;;-5.68;100.00
10127;BME280;13080;42.608;23.362;2023-02-05T00:15:01;149687.91;;;-5.66;100.00
10127;BME280;13080;42.608;23.362;2023-02-05T00:17:29;149673.81;;;-5.72;100.00
10127;BME280;13080;42.608;23.362;2023-02-05T00:19:56;149664.88;;;-5.75;100.00
10127;BME280;13080;42.608;23.362;2023-02-05T00:22:22;149673.81;;;-5.72;100.00
10127;BME280;13080;42.608;23.362;2023-02-05T00:24:49;149655.88;;;-5.79;100.00
10127;BME280;13080;42.608;23.362;2023-02-05T00:27:16;149673.81;;;-5.72;100.00
10127;BME280;13080;42.608;23.362;2023-02-05T00:29:42;149684.06;;;-5.68;100.00
10127;BME280;13080;42.608;23.362;2023-02-05T00:32:09;149681.53;;;-5.69;100.00
10127;BME280;13080;42.608;23.362;2023-02-05T00:34:37;149680.25;;;-5.69;100.00
10127;BME280;13080;42.608;23.362;2023-02-05T00:37:04;149698.19;;;-5.62;100.00
10127;BME280;13080;42.608;23.362;2023-02-05T00:39:31;149684.06;;;-5.68;100.00
10127;BME280;13080;42.608;23.362;2023-02-05T00:41:57;149675.13;;;-5.71;100.00
10127;BME280;13080;42.608;23.362;2023-02-05T00:44:24;149686.66;;;-5.67;100.00
10127;BME280;13080;42.608;23.362;2023-02-05T00:46:51;149663.59;;;-5.76;100.00
10127;BME280;13080;42.608;23.362;2023-02-05T00:49:18;149670.00;;;-5.73;100.00
10127;BME280;13080;42.608;23.362;2023-02-05T00:51:46;149654.59;;;-5.79;100.00
10127;BME280;13080;42.608;23.362;2023-02-05T00:54:12;149666.13;;;-5.75;100.00
10127;BME280;13080;42.608;23.362;2023-02-05T00:56:39;149641.81;;;-5.85;100.00
10127;BME280;13080;42.608;23.362;2023-02-05T00:59:06;149657.19;;;-5.78;100.00
10127;BME280;13080;42.608;23.362;2023-02-05T01:01:33;149662.28;;;-5.76;100.00
10127;BME280;13080;42.608;23.362;2023-02-05T01:03:59;149652.06;;;-5.80;100.00
10127;BME280;13080;42.608;23.362;2023-02-05T01:06:26;149641.81;;;-5.85;100.00
10127;BME280;13080;42.608;23.362;2023-02-05T01:08:54;149631.56;;;-5.89;100.00
10127;BME280;13080;42.608;23.362;2023-02-05T01:11:21;149641.81;;;-5.85;100.00
10127;BME280;13080;42.608;23.362;2023-02-05T01:13:48;149621.28;;;-5.93;100.00
10127;BME280;13080;42.608;23.362;2023-02-05T01:16:14;149620.03;;;-5.93;100.00
10127;BME280;13080;42.608;23.362;2023-02-05T01:18:41;149639.22;;;-5.86;100.00
10127;BME280;13080;42.608;23.362;2023-02-05T01:21:08;149626.41;;;-5.91;100.00
10127;BME280;13080;42.608;23.362;2023-02-05T01:23:35;149621.28;;;-5.93;100.00
10127;BME280;13080;42.608;23.362;2023-02-05T01:26:03;149630.28;;;-5.89;100.00
10127;BME280;13080;42.608;23.362;2023-02-05T01:28:29;149631.56;;;-5.89;100.00
10127;BME280;13080;42.608;23.362;2023-02-05T01:30:56;149620.03;;;-5.93;100.00
10127;BME280;13080;42.608;23.362;2023-02-05T01:33:23;149623.88;;;-5.92;100.00
10127;BME280;13080;42.608;23.362;2023-02-05T01:35:50;149608.53;;;-5.98;100.00
10127;BME280;13080;42.608;23.362;2023-02-05T01:38:16;149584.19;;;-6.08;100.00
10127;BME280;13080;42.608;23.362;2023-02-05T01:40:43;149609.81;;;-5.97;100.00
10127;BME280;13080;42.608;23.362;2023-02-05T01:43:12;149603.41;;;-6.00;100.00
10127;BME280;13080;42.608;23.362;2023-02-05T01:45:47;149600.84;;;-6.01;100.00
10127;BME280;13080;42.608;23.362;2023-02-05T01:48:18;149594.44;;;-6.03;100.00
10127;BME280;13080;42.608;23.362;2023-02-05T01:50:48;149607.28;;;-5.98;100.00
10127;BME280;13080;42.608;23.362;2023-02-05T01:53:19;149604.69;;;-5.99;100.00
10127;BME280;13080;42.608;23.362;2023-02-05T01:55:51;149593.16;;;-6.04;100.00
10127;BME280;13080;42.608;23.362;2023-02-05T01:58:22;149598.28;;;-6.02;100.00
10127;BME280;13080;42.608;23.362;2023-02-05T02:00:49;149575.25;;;-6.11;100.00
10127;BME280;13080;42.608;23.362;2023-02-05T02:03:16;149586.75;;;-6.07;100.00
10127;BME280;13080;42.608;23.362;2023-02-05T02:05:43;149591.88;;;-6.04;100.00
10127;BME280;13080;42.608;23.362;2023-02-05T02:08:11;149589.31;;;-6.06;100.00
10127;BME280;13080;42.608;23.362;2023-02-05T02:10:39;149585.50;;;-6.07;100.00
10127;BME280;13080;42.608;23.362;2023-02-05T02:13:09;149563.72;;;-6.16;100.00
10127;BME280;13080;42.608;23.362;2023-02-05T02:15:39;149576.50;;;-6.11;100.00
10127;BME280;13080;42.608;23.362;2023-02-05T02:18:06;149570.13;;;-6.13;100.00
10127;BME280;13080;42.608;23.362;2023-02-05T02:21:03;149561.13;;;-6.17;100.00
10127;BME280;13080;42.608;23.362;2023-02-05T02:23:38;149572.66;;;-6.12;100.00
10127;BME280;13080;42.608;23.362;2023-02-05T02:26:15;149571.38;;;-6.13;100.00
10127;BME280;13080;42.608;23.362;2023-02-05T02:28:50;149559.84;;;-6.17;100.00
10127;BME280;13080;42.608;23.362;2023-02-05T02:31:22;149532.94;;;-6.28;100.00
10127;BME280;13080;42.608;23.362;2023-02-05T02:33:58;149544.47;;;-6.23;100.00
10127;BME280;13080;42.608;23.362;2023-02-05T02:36:30;149549.59;;;-6.21;100.00
10127;BME280;13080;42.608;23.362;2023-02-05T02:39:02;149518.88;;;-6.34;100.00
10127;BME280;13080;42.608;23.362;2023-02-05T02:41:37;149522.75;;;-6.32;100.00
10127;BME280;13080;42.608;23.362;2023-02-05T02:44:09;149515.03;;;-6.35;100.00
10127;BME280;13080;42.608;23.362;2023-02-05T02:46:41;149511.19;;;-6.37;100.00
10127;BME280;13080;42.608;23.362;2023-02-05T02:49:13;149504.78;;;-6.39;100.00
10127;BME280;13080;42.608;23.362;2023-02-05T02:51:41;149495.84;;;-6.43;100.00
10127;BME280;13080;42.608;23.362;2023-02-05T02:54:13;149480.47;;;-6.49;100.00
10127;BME280;13080;42.608;23.362;2023-02-05T02:56:43;149511.19;;;-6.37;100.00
10127;BME280;13080;42.608;23.362;2023-02-05T02:59:14;149506.09;;;-6.39;100.00
10127;BME280;13080;42.608;23.362;2023-02-05T03:01:44;149486.88;;;-6.46;100.00
10127;BME280;13080;42.608;23.362;2023-02-05T03:04:15;149472.81;;;-6.52;100.00
10127;BME280;13080;42.608;23.362;2023-02-05T03:06:47;149453.56;;;-6.60;100.00
10127;BME280;13080;42.608;23.362;2023-02-05T03:09:23;149459.97;;;-6.57;100.00
10127;BME280;13080;42.608;23.362;2023-02-05T03:11:50;149466.38;;;-6.55;100.00
10127;BME280;13080;42.608;23.362;2023-02-05T03:14:18;149467.69;;;-6.54;99.45
10127;BME280;13080;42.608;23.362;2023-02-05T03:16:45;149458.69;;;-6.58;99.44
10127;BME280;13080;42.608;23.362;2023-02-05T03:19:12;149458.69;;;-6.58;98.91
10127;BME280;13080;42.608;23.362;2023-02-05T03:21:41;149461.28;;;-6.57;100.00
10127;BME280;13080;42.608;23.362;2023-02-05T03:24:09;149456.16;;;-6.59;99.94
10127;BME280;13080;42.608;23.362;2023-02-05T03:26:37;149440.78;;;-6.65;99.62
10127;BME280;13080;42.608;23.362;2023-02-05T03:29:05;149448.44;;;-6.62;99.08
10127;BME280;13080;42.608;23.362;2023-02-05T03:31:41;149428.00;;;-6.70;100.00
10127;BME280;13080;42.608;23.362;2023-02-05T03:34:18;149435.66;;;-6.67;100.00
10127;BME280;13080;42.608;23.362;2023-02-05T03:36:56;149439.50;;;-6.65;100.00
10127;BME280;13080;42.608;23.362;2023-02-05T03:39:31;149428.00;;;-6.70;100.00
10127;BME280;13080;42.608;23.362;2023-02-05T03:42:08;149411.34;;;-6.77;100.00
10127;BME280;13080;42.608;23.362;2023-02-05T03:44:52;149420.28;;;-6.73;100.00
10127;BME280;13080;42.608;23.362;2023-02-05T03:47:33;149411.34;;;-6.77;100.00
10127;BME280;13080;42.608;23.362;2023-02-05T03:50:11;149421.56;;;-6.73;100.00
10127;BME280;13080;42.608;23.362;2023-02-05T03:52:43;149411.34;;;-6.77;100.00
10127;BME280;13080;42.608;23.362;2023-02-05T03:55:14;149398.53;;;-6.82;100.00
10127;BME280;13080;42.608;23.362;2023-02-05T03:57:47;149384.47;;;-6.87;100.00
10127;BME280;13080;42.608;23.362;2023-02-05T04:00:15;149380.59;;;-6.89;100.00
10127;BME280;13080;42.608;23.362;2023-02-05T04:02:43;149392.13;;;-6.84;100.00
10127;BME280;13080;42.608;23.362;2023-02-05T04:05:10;149402.38;;;-6.80;100.00
10127;BME280;13080;42.608;23.362;2023-02-05T04:07:37;149408.78;;;-6.78;100.00
10127;BME280;13080;42.608;23.362;2023-02-05T04:10:04;149385.75;;;-6.87;100.00
10127;BME280;13080;42.608;23.362;2023-02-05T04:12:31;149389.59;;;-6.85;100.00
10127;BME280;13080;42.608;23.362;2023-02-05T04:14:58;149380.59;;;-6.89;100.00
10127;BME280;13080;42.608;23.362;2023-02-05T04:17:25;149387.00;;;-6.86;100.00
10127;BME280;13080;42.608;23.362;2023-02-05T04:19:53;149380.59;;;-6.89;100.00
10127;BME280;13080;42.608;23.362;2023-02-05T04:22:20;149379.34;;;-6.90;100.00
10127;BME280;13080;42.608;23.362;2023-02-05T04:24:46;149371.69;;;-6.93;100.00
10127;BME280;13080;42.608;23.362;2023-02-05T04:27:13;149362.72;;;-6.96;100.00
10127;BME280;13080;42.608;23.362;2023-02-05T04:29:40;149360.13;;;-6.97;100.00
10127;BME280;13080;42.608;23.362;2023-02-05T04:32:06;149356.31;;;-6.99;100.00
10127;BME280;13080;42.608;23.362;2023-02-05T04:34:33;149351.19;;;-7.01;100.00
10127;BME280;13080;42.608;23.362;2023-02-05T04:37:01;149339.69;;;-7.05;100.00
10127;BME280;13080;42.608;23.362;2023-02-05T04:39:28;149334.56;;;-7.07;100.00
10127;BME280;13080;42.608;23.362;2023-02-05T04:41:55;149331.97;;;-7.08;100.00
10127;BME280;13080;42.608;23.362;2023-02-05T04:44:22;149343.53;;;-7.04;100.00
10127;BME280;13080;42.608;23.362;2023-02-05T04:46:49;149343.53;;;-7.04;100.00
10127;BME280;13080;42.608;23.362;2023-02-05T04:49:15;149340.94;;;-7.05;100.00
10127;BME280;13080;42.608;23.362;2023-02-05T04:51:42;149334.56;;;-7.07;100.00
10127;BME280;13080;42.608;23.362;2023-02-05T04:54:10;149344.78;;;-7.03;100.00
10127;BME280;13080;42.608;23.362;2023-02-05T04:56:37;149329.44;;;-7.09;100.00
10127;BME280;13080;42.608;23.362;2023-02-05T04:59:04;149320.44;;;-7.13;100.00
10127;BME280;13080;42.608;23.362;2023-02-05T05:01:31;149324.31;;;-7.12;100.00
10127;BME280;13080;42.608;23.362;2023-02-05T05:03:57;149315.31;;;-7.15;100.00
10127;BME280;13080;42.608;23.362;2023-02-05T05:06:24;149321.78;;;-7.13;100.00
10127;BME280;13080;42.608;23.362;2023-02-05T05:08:51;149335.81;;;-7.07;100.00
10127;BME280;13080;42.608;23.362;2023-02-05T05:11:20;149330.69;;;-7.09;100.00
10127;BME280;13080;42.608;23.362;2023-02-05T05:13:47;149320.44;;;-7.13;100.00
10127;BME280;13080;42.608;23.362;2023-02-05T05:16:16;149310.25;;;-7.17;100.00
10127;BME280;13080;42.608;23.362;2023-02-05T05:18:43;149328.16;;;-7.10;100.00
10127;BME280;13080;42.608;23.362;2023-02-05T05:21:10;149338.41;;;-7.06;100.00
10127;BME280;13080;42.608;23.362;2023-02-05T05:23:38;149331.97;;;-7.08;100.00
10127;BME280;13080;42.608;23.362;2023-02-05T05:26:05;149330.69;;;-7.09;100.00
10127;BME280;13080;42.608;23.362;2023-02-05T05:28:34;149314.06;;;-7.16;100.00
10127;BME280;13080;42.608;23.362;2023-02-05T05:31:06;149310.25;;;-7.17;100.00
10127;BME280;13080;42.608;23.362;2023-02-05T05:33:33;149312.78;;;-7.16;100.00
10127;BME280;13080;42.608;23.362;2023-02-05T05:35:59;149323.03;;;-7.12;100.00
10127;BME280;13080;42.608;23.362;2023-02-05T05:38:26;149315.31;;;-7.15;100.00
10127;BME280;13080;42.608;23.362;2023-02-05T05:40:52;149310.25;;;-7.17;100.00
10127;BME280;13080;42.608;23.362;2023-02-05T05:43:38;149294.88;;;-7.23;100.00
10127;BME280;13080;42.608;23.362;2023-02-05T05:46:15;149287.19;;;-7.26;100.00
10127;BME280;13080;42.608;23.362;2023-02-05T05:48:47;149311.53;;;-7.17;100.00
10127;BME280;13080;42.608;23.362;2023-02-05T05:51:14;149320.44;;;-7.13;100.00
10127;BME280;13080;42.608;23.362;2023-02-05T05:53:41;149307.66;;;-7.18;100.00
10127;BME280;13080;42.608;23.362;2023-02-05T05:56:08;149334.56;;;-7.07;100.00
10127;BME280;13080;42.608;23.362;2023-02-05T05:58:34;149321.78;;;-7.13;100.00
10127;BME280;13080;42.608;23.362;2023-02-05T06:01:03;149300.00;;;-7.21;100.00
10127;BME280;13080;42.608;23.362;2023-02-05T06:03:30;149323.03;;;-7.12;100.00
10127;BME280;13080;42.608;23.362;2023-02-05T06:05:58;149320.44;;;-7.13;100.00
10127;BME280;13080;42.608;23.362;2023-02-05T06:08:25;149331.97;;;-7.08;100.00
10127;BME280;13080;42.608;23.362;2023-02-05T06:10:52;149338.41;;;-7.06;100.00
10127;BME280;13080;42.608;23.362;2023-02-05T06:13:18;149348.59;;;-7.02;100.00
10127;BME280;13080;42.608;23.362;2023-02-05T06:15:45;149370.38;;;-6.93;100.00
10127;BME280;13080;42.608;23.362;2023-02-05T06:18:14;149352.47;;;-7.00;100.00
10127;BME280;13080;42.608;23.362;2023-02-05T06:20:41;149374.22;;;-6.92;100.00
10127;BME280;13080;42.608;23.362;2023-02-05T06:23:07;149363.97;;;-6.96;100.00
10127;BME280;13080;42.608;23.362;2023-02-05T06:25:34;149398.53;;;-6.82;100.00
10127;BME280;13080;42.608;23.362;2023-02-05T06:28:01;149397.25;;;-6.82;100.00
10127;BME280;13080;42.608;23.362;2023-02-05T06:30:28;149402.38;;;-6.80;100.00
10127;BME280;13080;42.608;23.362;2023-02-05T06:32:55;149394.72;;;-6.83;100.00
10127;BME280;13080;42.608;23.362;2023-02-05T06:35:23;149365.25;;;-6.95;100.00
10127;BME280;13080;42.608;23.362;2023-02-05T06:37:50;149387.00;;;-6.86;100.00
10127;BME280;13080;42.608;23.362;2023-02-05T06:40:16;149380.59;;;-6.89;100.00
10127;BME280;13080;42.608;23.362;2023-02-05T06:42:46;149385.75;;;-6.87;100.00
10127;BME280;13080;42.608;23.362;2023-02-05T06:46:07;149399.84;;;-6.81;100.00
10127;BME280;13080;42.608;23.362;2023-02-05T06:48:33;149410.03;;;-6.77;100.00
10127;BME280;13080;42.608;23.362;2023-02-05T06:51:00;149420.28;;;-6.73;100.00
10127;BME280;13080;42.608;23.362;2023-02-05T06:53:27;149422.88;;;-6.72;100.00
10127;BME280;13080;42.608;23.362;2023-02-05T06:55:56;149419.03;;;-6.74;99.74
10127;BME280;13080;42.608;23.362;2023-02-05T06:58:23;149421.56;;;-6.73;99.96
10127;BME280;13080;42.608;23.362;2023-02-05T07:00:50;149425.41;;;-6.71;100.00
10127;BME280;13080;42.608;23.362;2023-02-05T07:03:18;149451.03;;;-6.61;100.00
10127;BME280;13080;42.608;23.362;2023-02-05T07:05:45;149486.88;;;-6.46;100.00
10127;BME280;13080;42.608;23.362;2023-02-05T07:08:11;149447.19;;;-6.62;100.00
10127;BME280;13080;42.608;23.362;2023-02-05T07:10:38;149433.13;;;-6.68;100.00
10127;BME280;13080;42.608;23.362;2023-02-05T07:13:05;149452.31;;;-6.60;100.00
10127;BME280;13080;42.608;23.362;2023-02-05T07:15:31;149477.94;;;-6.50;100.00
10127;BME280;13080;42.608;23.362;2023-02-05T07:17:58;149486.88;;;-6.46;100.00
10127;BME280;13080;42.608;23.362;2023-02-05T07:20:26;149511.19;;;-6.37;98.90
10127;BME280;13080;42.608;23.362;2023-02-05T07:22:53;149500.97;;;-6.41;99.41
10127;BME280;13080;42.608;23.362;2023-02-05T07:25:19;149485.59;;;-6.47;99.85
10127;BME280;13080;42.608;23.362;2023-02-05T07:27:46;149509.91;;;-6.37;99.30
10127;BME280;13080;42.608;23.362;2023-02-05T07:30:13;149488.13;;;-6.46;98.71
10127;BME280;13080;42.608;23.362;2023-02-05T07:32:40;149538.06;;;-6.26;99.60
10127;BME280;13080;42.608;23.362;2023-02-05T07:35:07;149541.94;;;-6.24;99.50
10127;BME280;13080;42.608;23.362;2023-02-05T07:37:35;149566.25;;;-6.15;98.72
10127;BME280;13080;42.608;23.362;2023-02-05T07:40:04;149597.03;;;-6.02;98.78
10127;BME280;13080;42.608;23.362;2023-02-05T07:42:31;149594.44;;;-6.03;97.49
10127;BME280;13080;42.608;23.362;2023-02-05T07:44:58;149621.28;;;-5.93;98.64
10127;BME280;13080;42.608;23.362;2023-02-05T07:47:24;149662.28;;;-5.76;98.28
10127;BME280;13080;42.608;23.362;2023-02-05T07:49:51;149685.38;;;-5.67;98.09
10127;BME280;13080;42.608;23.362;2023-02-05T07:52:18;149655.88;;;-5.79;99.31
10127;BME280;13080;42.608;23.362;2023-02-05T07:54:46;149694.31;;;-5.64;98.32
10127;BME280;13080;42.608;23.362;2023-02-05T07:57:13;149709.72;;;-5.57;98.62
10127;BME280;13080;42.608;23.362;2023-02-05T07:59:40;149719.97;;;-5.53;99.34
10127;BME280;13080;42.608;23.362;2023-02-05T08:02:08;149753.28;;;-5.40;98.19
10127;BME280;13080;42.608;23.362;2023-02-05T08:04:35;149800.69;;;-5.21;96.92
10127;BME280;13080;42.608;23.362;2023-02-05T08:07:01;149827.63;;;-5.10;96.04
10127;BME280;13080;42.608;23.362;2023-02-05T08:09:28;149843.03;;;-5.04;96.99
10127;BME280;13080;42.608;23.362;2023-02-05T08:11:56;149867.38;;;-4.94;95.74
10127;BME280;13080;42.608;23.362;2023-02-05T08:14:23;149873.78;;;-4.92;95.47
10127;BME280;13080;42.608;23.362;2023-02-05T08:16:50;149895.56;;;-4.83;94.47
10127;BME280;13080;42.608;23.362;2023-02-05T08:19:17;149891.72;;;-4.85;93.58
10127;BME280;13080;42.608;23.362;2023-02-05T08:21:43;149873.78;;;-4.92;95.19
10127;BME280;13080;42.608;23.362;2023-02-05T08:24:10;149925.06;;;-4.71;93.33
10127;BME280;13080;42.608;23.362;2023-02-05T08:26:37;149952.00;;;-4.61;94.68
10127;BME280;13080;42.608;23.362;2023-02-05T08:29:06;149963.53;;;-4.56;91.75
10127;BME280;13080;42.608;23.362;2023-02-05T08:31:34;149921.25;;;-4.73;91.50
10127;BME280;13080;42.608;23.362;2023-02-05T08:34:01;149969.94;;;-4.53;92.41
10127;BME280;13080;42.608;23.362;2023-02-05T08:36:28;149961.00;;;-4.57;90.84
10127;BME280;13080;42.608;23.362;2023-02-05T08:38:55;150005.91;;;-4.39;91.99
10127;BME280;13080;42.608;23.362;2023-02-05T08:41:22;150022.56;;;-4.32;91.69
10127;BME280;13080;42.608;23.362;2023-02-05T08:43:49;150037.94;;;-4.26;91.32
10127;BME280;13080;42.608;23.362;2023-02-05T08:46:19;150040.53;;;-4.25;90.44
10127;BME280;13080;42.608;23.362;2023-02-05T08:48:48;150043.06;;;-4.24;90.21
10127;BME280;13080;42.608;23.362;2023-02-05T08:51:16;150108.53;;;-3.98;92.52
10127;BME280;13080;42.608;23.362;2023-02-05T08:53:44;150099.53;;;-4.02;88.01
10127;BME280;13080;42.608;23.362;2023-02-05T08:56:11;150026.38;;;-4.31;87.82
10127;BME280;13080;42.608;23.362;2023-02-05T08:58:38;149973.81;;;-4.52;89.02
10127;BME280;13080;42.608;23.362;2023-02-05T09:01:08;150039.25;;;-4.26;91.24
10127;BME280;13080;42.608;23.362;2023-02-05T09:03:37;150084.16;;;-4.08;89.36
10127;BME280;13080;42.608;23.362;2023-02-05T09:06:05;150108.53;;;-3.98;89.41
10127;BME280;13080;42.608;23.362;2023-02-05T09:08:33;150150.84;;;-3.81;90.17
10127;BME280;13080;42.608;23.362;2023-02-05T09:11:00;150111.06;;;-3.97;88.17
10127;BME280;13080;42.608;23.362;2023-02-05T09:13:27;150098.25;;;-4.02;87.60
10127;BME280;13080;42.608;23.362;2023-02-05T09:15:54;150132.88;;;-3.88;88.29
10127;BME280;13080;42.608;23.362;2023-02-05T09:18:20;150113.66;;;-3.96;88.42
10127;BME280;13080;42.608;23.362;2023-02-05T09:20:49;150075.16;;;-4.11;88.12
10127;BME280;13080;42.608;23.362;2023-02-05T09:23:17;150087.97;;;-4.06;86.27
10127;BME280;13080;42.608;23.362;2023-02-05T09:25:44;150108.53;;;-3.98;86.14
10127;BME280;13080;42.608;23.362;2023-02-05T09:28:12;150123.94;;;-3.92;83.59
10127;BME280;13080;42.608;23.362;2023-02-05T09:30:41;150143.16;;;-3.84;82.61
10127;BME280;13080;42.608;23.362;2023-02-05T09:33:09;150168.84;;;-3.74;80.50
10127;BME280;13080;42.608;23.362;2023-02-05T09:35:36;150105.94;;;-3.99;80.21
10127;BME280;13080;42.608;23.362;2023-02-05T09:38:04;150062.34;;;-4.16;80.88
10127;BME280;13080;42.608;23.362;2023-02-05T09:40:34;150096.97;;;-4.03;82.90
10127;BME280;13080;42.608;23.362;2023-02-05T09:43:06;150041.78;;;-4.25;80.65
10127;BME280;13080;42.608;23.362;2023-02-05T09:45:51;150025.13;;;-4.31;78.81
10127;BME280;13080;42.608;23.362;2023-02-05T09:48:36;150028.97;;;-4.30;80.65
10127;BME280;13080;42.608;23.362;2023-02-05T09:51:09;150030.25;;;-4.29;81.99
10127;BME280;13080;42.608;23.362;2023-02-05T09:53:41;150017.44;;;-4.34;79.64
10127;BME280;13080;42.608;23.362;2023-02-05T09:56:12;149976.34;;;-4.51;79.80
10127;BME280;13080;42.608;23.362;2023-02-05T09:58:42;150030.25;;;-4.29;81.66
10127;BME280;13080;42.608;23.362;2023-02-05T10:01:15;150004.56;;;-4.40;79.24
10127;BME280;13080;42.608;23.362;2023-02-05T10:03:45;150002.03;;;-4.41;80.00
10127;BME280;13080;42.608;23.362;2023-02-05T10:06:30;149978.94;;;-4.50;79.00
10127;BME280;13080;42.608;23.362;2023-02-05T10:09:14;150014.84;;;-4.35;80.71
10127;BME280;13080;42.608;23.362;2023-02-05T10:11:51;150009.72;;;-4.38;77.98
10127;BME280;13080;42.608;23.362;2023-02-05T10:14:33;150013.56;;;-4.36;79.75
10127;BME280;13080;42.608;23.362;2023-02-05T10:17:16;150071.28;;;-4.13;80.67
10127;BME280;13080;42.608;23.362;2023-02-05T10:20:02;150021.25;;;-4.33;76.20
10127;BME280;13080;42.608;23.362;2023-02-05T10:22:42;149934.06;;;-4.68;78.75
10127;BME280;13080;42.608;23.362;2023-02-05T10:25:40;149982.81;;;-4.48;79.87
10127;BME280;13080;42.608;23.362;2023-02-05T10:28:23;149991.75;;;-4.45;80.88
10127;BME280;13080;42.608;23.362;2023-02-05T10:30:57;149985.34;;;-4.47;78.20
10127;BME280;13080;42.608;23.362;2023-02-05T10:33:39;149971.22;;;-4.53;77.49
10127;BME280;13080;42.608;23.362;2023-02-05T10:36:08;149963.53;;;-4.56;78.10
10127;BME280;13080;42.608;23.362;2023-02-05T10:38:41;149930.19;;;-4.69;77.68
10127;BME280;13080;42.608;23.362;2023-02-05T10:41:16;149866.09;;;-4.95;80.43
10127;BME280;13080;42.608;23.362;2023-02-05T10:43:48;149886.59;;;-4.87;79.61
10127;BME280;13080;42.608;23.362;2023-02-05T10:46:17;149867.38;;;-4.94;78.59
10127;BME280;13080;42.608;23.362;2023-02-05T10:48:45;149893.03;;;-4.84;81.11
10127;BME280;13080;42.608;23.362;2023-02-05T10:51:15;149904.56;;;-4.79;78.75
10127;BME280;13080;42.608;23.362;2023-02-05T10:53:42;149912.25;;;-4.76;77.73
10127;BME280;13080;42.608;23.362;2023-02-05T10:56:16;149876.34;;;-4.91;77.74
10127;BME280;13080;42.608;23.362;2023-02-05T10:58:45;149887.91;;;-4.86;79.56
10127;BME280;13080;42.608;23.362;2023-02-05T11:01:17;149837.88;;;-5.06;76.48
10127;BME280;13080;42.608;23.362;2023-02-05T11:03:53;149834.03;;;-5.08;78.22
10127;BME280;13080;42.608;23.362;2023-02-05T11:06:22;149867.38;;;-4.94;79.17
10127;BME280;13080;42.608;23.362;2023-02-05T11:08:50;149859.69;;;-4.97;77.23
10127;BME280;13080;42.608;23.362;2023-02-05T11:11:25;149859.69;;;-4.97;77.49
10127;BME280;13080;42.608;23.362;2023-02-05T11:13:55;149823.75;;;-5.12;76.19
10127;BME280;13080;42.608;23.362;2023-02-05T11:16:33;149813.50;;;-5.16;77.83
10127;BME280;13080;42.608;23.362;2023-02-05T11:19:01;149818.63;;;-5.14;76.87
10127;BME280;13080;42.608;23.362;2023-02-05T11:21:49;149848.16;;;-5.02;79.33
10127;BME280;13080;42.608;23.362;2023-02-05T11:24:26;149850.69;;;-5.01;76.94
10127;BME280;13080;42.608;23.362;2023-02-05T11:27:25;149926.31;;;-4.71;78.72
10127;BME280;13080;42.608;23.362;2023-02-05T11:29:52;149894.31;;;-4.84;74.47
10127;BME280;13080;42.608;23.362;2023-02-05T11:32:20;149896.84;;;-4.83;75.17
10127;BME280;13080;42.608;23.362;2023-02-05T11:34:47;149858.38;;;-4.98;74.54
10127;BME280;13080;42.608;23.362;2023-02-05T11:37:16;149850.69;;;-5.01;74.28
10127;BME280;13080;42.608;23.362;2023-02-05T11:39:45;149831.50;;;-5.09;74.34
10127;BME280;13080;42.608;23.362;2023-02-05T11:42:22;149857.09;;;-4.98;75.89
10127;BME280;13080;42.608;23.362;2023-02-05T11:44:52;149904.56;;;-4.79;76.58
10127;BME280;13080;42.608;23.362;2023-02-05T11:47:25;149952.00;;;-4.61;75.88
10127;BME280;13080;42.608;23.362;2023-02-05T11:49:53;149971.22;;;-4.53;72.66
10127;BME280;13080;42.608;23.362;2023-02-05T11:52:25;150014.84;;;-4.35;75.29
10127;BME280;13080;42.608;23.362;2023-02-05T11:54:53;149948.13;;;-4.62;72.57
10127;BME280;13080;42.608;23.362;2023-02-05T11:57:30;149909.72;;;-4.77;71.69
10127;BME280;13080;42.608;23.362;2023-02-05T11:59:59;149917.38;;;-4.74;71.04
10127;BME280;13080;42.608;23.362;2023-02-05T12:02:30;149921.25;;;-4.73;72.96
10127;BME280;13080;42.608;23.362;2023-02-05T12:05:02;149937.91;;;-4.66;72.14
10127;BME280;13080;42.608;23.362;2023-02-05T12:07:35;149944.31;;;-4.64;71.59
10127;BME280;13080;42.608;23.362;2023-02-05T12:10:13;149993.03;;;-4.44;72.55
10127;BME280;13080;42.608;23.362;2023-02-05T12:12:47;150035.38;;;-4.27;72.06
10127;BME280;13080;42.608;23.362;2023-02-05T12:15:20;150071.28;;;-4.13;68.35
10127;BME280;13080;42.608;23.362;2023-02-05T12:17:52;150045.66;;;-4.23;67.95
10127;BME280;13080;42.608;23.362;2023-02-05T12:20:25;150034.13;;;-4.28;67.52
10127;BME280;13080;42.608;23.362;2023-02-05T12:23:16;150021.25;;;-4.33;67.75
10127;BME280;13080;42.608;23.362;2023-02-05T12:25:53;150028.97;;;-4.30;70.77
10127;BME280;13080;42.608;23.362;2023-02-05T12:28:35;150067.47;;;-4.14;70.21
10127;BME280;13080;42.608;23.362;2023-02-05T12:31:16;150044.38;;;-4.24;72.02
10127;BME280;13080;42.608;23.362;2023-02-05T12:36:58;149989.22;;;-4.46;71.14
10127;BME280;13080;42.608;23.362;2023-02-05T12:39:37;149972.53;;;-4.52;71.17
10127;BME280;13080;42.608;23.362;2023-02-05T12:42:14;149982.81;;;-4.48;73.37
10127;BME280;13080;42.608;23.362;2023-02-05T12:44:54;150004.56;;;-4.40;72.79
10127;BME280;13080;42.608;23.362;2023-02-05T12:47:37;149948.13;;;-4.62;72.00
10127;BME280;13080;42.608;23.362;2023-02-05T12:50:12;149975.06;;;-4.51;71.16
10127;BME280;13080;42.608;23.362;2023-02-05T12:52:52;149994.34;;;-4.44;71.79